createdAt,value
2022-08-16T00:05:02.174Z,75.11
2022-08-16T00:10:08.627Z,75.85
2022-08-16T00:15:51.986Z,76.18
2022-08-16T00:20:53.654Z,76.19
2022-08-16T00:26:34.963Z,76.37
2022-08-16T00:31:20.131Z,76.49
2022-08-16T00:36:27.881Z,76.40
2022-08-16T00:41:32.421Z,76.24
2022-08-16T00:47:06.140Z,76.02
2022-08-16T00:52:30.327Z,75.43
2022-08-16T00:57:58.302Z,75.69
2022-08-16T01:03:03.595Z,75.55
2022-08-16T01:08:35.120Z,75.45
2022-08-16T01:13:35.578Z,75.71
2022-08-16T01:18:55.898Z,75.90
2022-08-16T01:24:52.291Z,76.30
2022-08-16T01:30:19.517Z,76.65
2022-08-16T01:35:30.647Z,76.48
2022-08-16T01:40:38.691Z,76.19
2022-08-16T01:45:43.491Z,76.55
2022-08-16T01:51:09.217Z,76.62
2022-08-16T01:56:24.494Z,76.58
2022-08-16T02:01:29.960Z,75.95
2022-08-16T02:06:37.893Z,75.25
2022-08-16T02:11:48.558Z,75.21
2022-08-16T02:16:59.472Z,75.11
2022-08-16T02:22:08.927Z,75.29
2022-08-16T02:27:26.742Z,75.78
2022-08-16T02:32:49.000Z,76.53
2022-08-16T02:37:56.181Z,76.63
2022-08-16T02:42:59.514Z,77.43
2022-08-16T02:48:29.503Z,77.88
2022-08-16T02:53:27.075Z,77.92
2022-08-16T02:58:33.889Z,77.32
2022-08-16T03:04:39.792Z,77.01
2022-08-16T03:09:01.285Z,77.60
2022-08-16T03:14:07.389Z,77.78
2022-08-16T03:19:11.090Z,78.22
2022-08-16T03:24:29.260Z,78.32
2022-08-16T03:29:34.012Z,78.28
2022-08-16T03:34:37.048Z,78.20
2022-08-16T03:39:42.928Z,78.52
2022-08-16T03:44:47.554Z,78.38
2022-08-16T03:49:52.539Z,78.23
2022-08-16T03:54:58.266Z,78.24
2022-08-16T04:00:20.613Z,78.54
2022-08-16T04:05:47.442Z,78.68
2022-08-16T04:10:53.050Z,78.93
2022-08-16T04:15:59.422Z,78.88
2022-08-16T04:21:04.634Z,78.81
2022-08-16T04:26:08.260Z,78.45
2022-08-16T04:31:20.621Z,78.46
2022-08-16T04:36:23.811Z,78.25
2022-08-16T04:41:32.897Z,78.42
2022-08-16T04:47:02.936Z,78.24
2022-08-16T04:52:05.878Z,78.49
2022-08-16T04:57:30.132Z,78.46
2022-08-16T05:02:41.503Z,78.07
2022-08-16T05:07:59.645Z,78.31
2022-08-16T05:13:04.861Z,78.50
2022-08-16T05:18:16.183Z,78.65
2022-08-16T05:23:21.154Z,78.62
2022-08-16T05:28:37.367Z,78.56
2022-08-16T05:33:42.096Z,77.87
2022-08-16T05:38:45.661Z,77.43
2022-08-16T05:43:49.477Z,77.21
2022-08-16T05:48:55.246Z,77.21
2022-08-16T05:53:59.884Z,77.12
2022-08-16T05:59:03.031Z,76.52
2022-08-16T06:04:12.888Z,76.28
2022-08-16T06:09:43.551Z,76.17
2022-08-16T06:14:47.524Z,75.86
2022-08-16T06:19:54.889Z,76.29
2022-08-16T06:24:59.027Z,75.79
2022-08-16T06:30:04.135Z,75.00
2022-08-16T06:35:09.673Z,74.76
2022-08-16T06:40:15.929Z,74.39
2022-08-16T06:45:19.734Z,74.38
2022-08-16T06:50:29.699Z,74.65
2022-08-16T06:55:34.852Z,74.78
2022-08-16T07:00:42.996Z,74.09
2022-08-16T07:05:46.829Z,73.89
2022-08-16T07:10:51.224Z,72.35
2022-08-16T07:15:54.526Z,72.18
2022-08-16T07:21:01.979Z,71.57
2022-08-16T07:26:11.425Z,71.47
2022-08-16T07:31:38.083Z,70.30
2022-08-16T07:36:41.526Z,69.77
2022-08-16T07:41:48.521Z,69.34
2022-08-16T07:46:55.462Z,69.51
2022-08-16T07:51:59.728Z,69.12
2022-08-16T07:57:02.870Z,69.08
2022-08-16T08:02:06.278Z,68.82
2022-08-16T08:07:16.263Z,68.09
2022-08-16T08:12:31.612Z,68.07
2022-08-16T08:17:43.026Z,68.20
2022-08-16T08:22:49.386Z,68.08
2022-08-16T08:27:57.464Z,67.15
2022-08-16T08:33:01.314Z,66.43
2022-08-16T08:38:08.664Z,66.58
2022-08-16T08:43:17.960Z,66.98
2022-08-16T08:48:33.329Z,66.81
2022-08-16T08:53:39.907Z,67.14
2022-08-16T08:58:53.689Z,66.45
2022-08-16T09:03:58.677Z,66.61
2022-08-16T09:09:03.648Z,66.81
2022-08-16T09:14:07.318Z,64.61
2022-08-16T09:19:10.298Z,63.18
2022-08-16T09:24:13.342Z,63.70
2022-08-16T09:29:44.863Z,63.17
2022-08-16T09:34:48.973Z,64.15
2022-08-16T09:39:52.471Z,64.96
2022-08-16T09:45:11.181Z,63.75
2022-08-16T09:50:22.660Z,62.92
2022-08-16T09:55:29.064Z,62.74
2022-08-16T10:00:44.506Z,62.57
2022-08-16T10:05:49.705Z,62.56
2022-08-16T10:11:11.994Z,62.61
2022-08-16T10:21:23.574Z,63.17
2022-08-16T10:27:17.071Z,64.75
2022-08-16T10:31:53.629Z,66.23
2022-08-16T10:37:02.521Z,67.14
2022-08-16T10:42:07.139Z,68.08
2022-08-16T10:47:12.010Z,67.81
2022-08-16T10:52:19.036Z,67.22
2022-08-16T10:57:24.603Z,67.24
2022-08-16T11:02:57.560Z,67.01
2022-08-16T11:07:53.531Z,67.26
2022-08-16T11:13:21.156Z,68.47
2022-08-16T11:18:48.604Z,68.77
2022-08-16T11:23:57.566Z,68.19
2022-08-16T11:29:17.540Z,67.44
2022-08-16T11:34:22.015Z,66.79
2022-08-16T11:39:25.099Z,66.35
2022-08-16T11:44:45.376Z,67.03
2022-08-16T11:49:51.775Z,67.40
2022-08-16T11:54:57.055Z,66.66
2022-08-16T12:00:33.855Z,66.55
2022-08-16T12:05:35.360Z,66.89
2022-08-16T12:10:43.114Z,66.81
2022-08-16T12:15:47.552Z,66.80
2022-08-16T12:20:51.928Z,66.63
2022-08-16T12:25:58.556Z,65.56
2022-08-16T12:31:02.936Z,65.18
2022-08-16T12:36:06.203Z,65.68
2022-08-16T12:41:24.450Z,66.26
2022-08-16T12:46:29.950Z,66.40
2022-08-16T12:51:59.046Z,67.10
2022-08-16T12:57:03.195Z,67.17
2022-08-16T13:02:06.711Z,67.42
2022-08-16T13:07:16.508Z,68.28
2022-08-16T13:12:25.084Z,68.54
2022-08-16T13:17:29.813Z,69.22
2022-08-16T13:22:33.359Z,69.02
2022-08-16T13:28:01.680Z,69.14
2022-08-16T13:32:59.920Z,69.78
2022-08-16T13:38:03.680Z,69.70
2022-08-16T13:43:11.396Z,69.79
2022-08-16T13:48:21.838Z,69.92
2022-08-16T13:53:28.532Z,69.48
2022-08-16T13:58:37.143Z,69.73
2022-08-16T14:03:54.526Z,69.40
2022-08-16T14:08:59.323Z,69.42
2022-08-16T14:14:11.128Z,70.39
2022-08-16T14:19:19.032Z,70.56
2022-08-16T14:24:30.244Z,70.34
2022-08-16T14:29:35.124Z,70.02
2022-08-16T14:34:41.940Z,69.65
2022-08-16T14:39:45.438Z,68.85
2022-08-16T14:44:49.332Z,67.98
2022-08-16T14:49:53.034Z,66.74
2022-08-16T14:54:56.581Z,66.82
2022-08-16T15:00:06.206Z,66.40
2022-08-16T15:05:12.021Z,65.67
2022-08-16T15:10:24.097Z,64.26
2022-08-16T15:15:30.151Z,64.16
2022-08-16T15:20:35.677Z,64.53
2022-08-16T15:25:47.186Z,64.05
2022-08-16T15:31:14.988Z,62.79
2022-08-16T15:36:20.543Z,63.62
2022-08-16T15:41:38.812Z,63.66
2022-08-16T15:46:56.941Z,63.19
2022-08-16T15:52:03.114Z,62.57
2022-08-16T15:57:11.686Z,62.14
2022-08-16T16:02:18.514Z,61.88
2022-08-16T16:07:33.327Z,61.82
2022-08-16T16:12:50.931Z,62.69
2022-08-16T16:17:58.391Z,63.18
2022-08-16T16:23:10.330Z,63.69
2022-08-16T16:29:05.447Z,64.00
2022-08-16T16:33:44.597Z,64.70
2022-08-16T16:38:49.667Z,65.17
2022-08-16T16:43:55.194Z,65.38
2022-08-16T16:48:58.713Z,64.74
2022-08-16T16:54:02.739Z,64.93
2022-08-16T16:59:09.797Z,65.43
2022-08-16T17:04:19.571Z,66.34
2022-08-16T17:09:25.371Z,66.13
2022-08-16T17:14:32.792Z,66.18
2022-08-16T17:19:41.210Z,66.61
2022-08-16T17:24:50.849Z,66.79
2022-08-16T17:29:55.535Z,66.59
2022-08-16T17:35:03.018Z,66.35
2022-08-16T17:40:25.865Z,66.48
2022-08-16T17:45:40.276Z,67.11
2022-08-16T17:50:43.964Z,66.89
2022-08-16T17:55:50.786Z,67.13
2022-08-16T18:00:57.978Z,67.66
2022-08-16T18:06:01.003Z,67.76
2022-08-16T18:11:06.550Z,67.80
2022-08-16T18:16:12.654Z,68.24
2022-08-16T18:21:34.681Z,68.34
2022-08-16T18:26:38.787Z,68.45
2022-08-16T18:31:41.890Z,68.45
2022-08-16T18:36:44.887Z,68.50
2022-08-16T18:41:48.069Z,68.07
2022-08-16T18:46:51.288Z,68.30
2022-08-16T18:51:59.443Z,68.19
2022-08-16T18:57:07.247Z,68.40
2022-08-16T19:02:57.117Z,68.45
2022-08-16T19:07:34.083Z,68.50
2022-08-16T19:12:42.148Z,68.50
2022-08-16T19:17:46.161Z,68.63
2022-08-16T19:23:10.145Z,68.94
2022-08-16T19:28:48.869Z,69.15
2022-08-16T19:33:40.287Z,69.30
2022-08-16T19:38:43.338Z,69.53
2022-08-16T19:43:47.634Z,69.62
2022-08-16T19:48:50.662Z,69.57
2022-08-16T19:53:53.735Z,69.64
2022-08-16T19:59:18.184Z,69.98
2022-08-16T20:04:21.929Z,70.24
2022-08-16T20:09:25.456Z,70.55
2022-08-16T20:14:28.479Z,70.54
2022-08-16T20:19:40.080Z,70.77
2022-08-16T20:24:43.985Z,70.97
2022-08-16T20:29:48.592Z,71.30
2022-08-16T20:34:55.130Z,71.71
2022-08-16T20:40:28.002Z,71.78
2022-08-16T20:45:26.980Z,71.79
2022-08-16T20:50:30.829Z,71.86
2022-08-16T20:55:36.606Z,71.96
2022-08-16T21:00:40.587Z,72.35
2022-08-16T21:05:44.090Z,72.71
2022-08-16T21:10:47.123Z,73.06
2022-08-16T21:15:50.111Z,72.87
2022-08-16T21:20:53.799Z,72.65
2022-08-16T21:25:59.238Z,72.45
2022-08-16T21:31:02.909Z,72.56
2022-08-16T21:36:06.415Z,72.95
2022-08-16T21:41:12.949Z,72.87
2022-08-16T21:46:16.047Z,72.76
2022-08-16T21:51:19.072Z,72.71
2022-08-16T21:56:22.110Z,72.87
2022-08-16T22:01:26.656Z,72.78
2022-08-16T22:06:29.723Z,72.74
2022-08-16T22:11:33.587Z,72.84
2022-08-16T22:16:39.804Z,72.71
2022-08-16T22:21:42.901Z,73.48
2022-08-16T22:26:45.910Z,73.69
2022-08-16T22:31:48.957Z,73.48
2022-08-16T22:36:51.969Z,74.16
2022-08-16T22:41:55.236Z,73.87
2022-08-16T22:46:58.603Z,74.52
2022-08-16T22:52:07.475Z,74.64
2022-08-16T22:57:10.580Z,75.19
2022-08-16T23:02:15.091Z,75.22
2022-08-16T23:07:18.297Z,75.43
2022-08-16T23:12:26.236Z,75.46
2022-08-16T23:17:32.325Z,75.25
2022-08-16T23:23:19.968Z,75.30
2022-08-16T23:28:16.834Z,74.84
2022-08-16T23:33:21.919Z,74.46
2022-08-16T23:38:37.571Z,74.87
2022-08-16T23:43:43.648Z,74.37
2022-08-16T23:49:56.907Z,74.32
2022-08-16T23:54:11.767Z,74.37
2022-08-16T23:59:14.779Z,74.23
